createdAt,value
2023-05-19T00:02:56.461Z,10.82
2023-05-19T00:05:46.482Z,10.83
2023-05-19T00:08:38.193Z,9.66
2023-05-19T00:11:28.720Z,8.59
2023-05-19T00:14:17.229Z,7.86
2023-05-19T00:17:06.179Z,7.65
2023-05-19T00:19:55.074Z,8.79
2023-05-19T00:22:45.181Z,9.81
2023-05-19T00:25:33.594Z,10.50
2023-05-19T00:28:21.861Z,10.62
2023-05-19T00:31:10.257Z,9.52
2023-05-19T00:33:58.376Z,8.48
2023-05-19T00:36:46.860Z,7.75
2023-05-19T00:39:35.329Z,7.21
2023-05-19T00:42:23.642Z,7.18
2023-05-19T00:45:11.958Z,8.40
2023-05-19T00:48:01.734Z,9.46
2023-05-19T00:50:52.537Z,10.08
2023-05-19T00:53:41.296Z,10.53
2023-05-19T00:56:29.749Z,10.54
2023-05-19T00:59:18.079Z,9.42
2023-05-19T01:02:07.105Z,8.39
2023-05-19T01:04:57.538Z,7.66
2023-05-19T01:07:47.421Z,7.10
2023-05-19T01:10:36.406Z,7.05
2023-05-19T01:13:25.746Z,8.25
2023-05-19T01:16:42.990Z,9.29
2023-05-19T01:19:56.513Z,10.01
2023-05-19T01:22:57.314Z,10.45
2023-05-19T01:26:35.086Z,10.74
2023-05-19T01:30:10.962Z,10.32
2023-05-19T01:33:07.695Z,8.80
2023-05-19T01:35:57.749Z,7.91
2023-05-19T01:38:47.926Z,7.29
2023-05-19T01:41:37.239Z,7.24
2023-05-19T01:44:26.932Z,8.43
2023-05-19T01:47:15.831Z,9.40
2023-05-19T01:50:05.154Z,10.02
2023-05-19T01:52:54.027Z,10.36
2023-05-19T01:55:52.048Z,10.58
2023-05-19T01:58:53.240Z,10.44
2023-05-19T02:01:53.463Z,9.18
2023-05-19T02:05:00.665Z,8.10
2023-05-19T02:08:02.597Z,7.32
2023-05-19T02:11:08.445Z,7.23
2023-05-19T02:14:00.112Z,8.64
2023-05-19T02:16:49.557Z,9.65
2023-05-19T02:19:42.618Z,10.27
2023-05-19T02:22:31.614Z,10.71
2023-05-19T02:25:19.950Z,10.68
2023-05-19T02:28:08.686Z,9.46
2023-05-19T02:30:56.833Z,8.37
2023-05-19T02:33:45.960Z,7.59
2023-05-19T02:36:39.142Z,7.31
2023-05-19T02:39:30.407Z,8.46
2023-05-19T02:42:18.605Z,9.45
2023-05-19T02:45:07.370Z,10.06
2023-05-19T02:47:56.989Z,10.47
2023-05-19T02:50:47.136Z,10.40
2023-05-19T02:53:38.581Z,9.26
2023-05-19T02:56:26.635Z,8.24
2023-05-19T02:59:14.762Z,7.53
2023-05-19T03:02:05.656Z,7.00
2023-05-19T03:04:53.822Z,6.96
2023-05-19T03:07:42.341Z,8.22
2023-05-19T03:10:31.167Z,9.33
2023-05-19T03:13:19.453Z,10.10
2023-05-19T03:16:08.665Z,10.65
2023-05-19T03:18:57.715Z,11.03
2023-05-19T03:21:46.559Z,11.00
2023-05-19T03:24:34.826Z,9.94
2023-05-19T03:27:24.649Z,9.04
2023-05-19T03:30:14.131Z,8.44
2023-05-19T03:33:16.499Z,7.98
2023-05-19T03:36:06.901Z,8.08
2023-05-19T03:38:59.042Z,9.58
2023-05-19T03:41:47.629Z,10.81
2023-05-19T03:44:35.851Z,11.72
2023-05-19T03:47:24.548Z,12.01
2023-05-19T03:50:34.144Z,10.88
2023-05-19T03:53:33.704Z,9.97
2023-05-19T03:56:25.161Z,9.42
2023-05-19T03:59:13.211Z,9.05
2023-05-19T04:02:01.319Z,9.09
2023-05-19T04:04:51.405Z,10.37
2023-05-19T04:07:40.305Z,11.58
2023-05-19T04:10:28.863Z,12.38
2023-05-19T04:13:18.409Z,12.66
2023-05-19T04:16:07.601Z,11.82
2023-05-19T04:18:57.083Z,11.06
2023-05-19T04:21:46.336Z,10.57
2023-05-19T04:24:35.058Z,10.25
2023-05-19T04:27:23.770Z,10.01
2023-05-19T04:30:12.722Z,9.84
2023-05-19T04:33:05.018Z,10.17
2023-05-19T04:35:53.866Z,11.67
2023-05-19T04:38:42.100Z,12.92
2023-05-19T04:41:31.843Z,13.46
2023-05-19T04:44:20.667Z,12.71
2023-05-19T04:47:11.580Z,12.05
2023-05-19T04:50:04.115Z,11.67
2023-05-19T04:52:53.353Z,11.49
2023-05-19T04:55:41.642Z,11.49
2023-05-19T04:58:31.104Z,11.63
2023-05-19T05:01:28.288Z,11.70
2023-05-19T05:04:17.118Z,11.71
2023-05-19T05:07:06.450Z,12.06
2023-05-19T05:09:58.633Z,13.58
2023-05-19T05:12:50.288Z,14.64
2023-05-19T05:15:39.828Z,14.39
2023-05-19T05:18:34.574Z,14.21
2023-05-19T05:21:23.997Z,14.31
2023-05-19T05:24:13.462Z,14.59
2023-05-19T05:27:02.172Z,14.88
2023-05-19T05:29:53.111Z,15.24
2023-05-19T05:32:42.872Z,15.60
2023-05-19T05:35:38.953Z,15.99
2023-05-19T05:38:28.178Z,16.44
2023-05-19T05:41:18.709Z,16.99
2023-05-19T05:44:07.818Z,17.47
2023-05-19T05:46:56.992Z,17.89
2023-05-19T05:49:48.832Z,18.12
2023-05-19T05:52:41.291Z,18.31
2023-05-19T05:55:32.004Z,18.81
2023-05-19T05:58:51.344Z,19.43
2023-05-19T06:01:44.044Z,20.23
2023-05-19T06:04:33.107Z,21.00
2023-05-19T06:07:25.220Z,21.74
2023-05-19T06:10:14.450Z,22.33
2023-05-19T06:13:29.625Z,22.63
2023-05-19T06:16:21.268Z,22.80
2023-05-19T06:19:10.161Z,22.75
2023-05-19T06:22:11.000Z,22.87
2023-05-19T06:25:09.094Z,23.04
2023-05-19T06:27:58.178Z,23.17
2023-05-19T06:30:47.380Z,23.19
2023-05-19T06:33:58.978Z,23.37
2023-05-19T06:36:47.560Z,23.61
2023-05-19T06:39:43.005Z,24.09
2023-05-19T06:42:33.075Z,24.89
2023-05-19T06:45:34.701Z,25.59
2023-05-19T06:48:27.035Z,26.11
2023-05-19T06:51:21.887Z,26.59
2023-05-19T06:54:16.481Z,27.04
2023-05-19T06:57:17.297Z,27.52
2023-05-19T07:00:19.804Z,28.00
2023-05-19T07:03:21.113Z,28.66
2023-05-19T07:06:16.284Z,29.33
2023-05-19T07:09:09.055Z,30.08
2023-05-19T07:12:01.604Z,30.90
2023-05-19T07:15:09.872Z,31.46
2023-05-19T07:18:06.616Z,31.76
2023-05-19T07:21:00.449Z,31.88
2023-05-19T07:23:58.230Z,31.99
2023-05-19T07:26:52.079Z,31.89
2023-05-19T07:29:46.469Z,31.84
2023-05-19T07:32:40.952Z,32.08
2023-05-19T07:35:40.050Z,32.28
2023-05-19T07:38:36.224Z,32.27
2023-05-19T07:41:27.663Z,32.05
2023-05-19T07:44:18.825Z,31.73
2023-05-19T07:47:08.813Z,31.36
2023-05-19T07:50:08.082Z,31.18
2023-05-19T07:53:01.251Z,30.99
2023-05-19T07:55:58.724Z,30.94
2023-05-19T07:58:57.654Z,30.84
2023-05-19T08:01:52.359Z,30.21
2023-05-19T08:04:49.148Z,29.57
2023-05-19T08:07:53.411Z,28.94
2023-05-19T08:10:47.763Z,28.47
2023-05-19T08:13:49.878Z,28.37
2023-05-19T08:16:50.994Z,28.25
2023-05-19T08:19:39.763Z,28.16
2023-05-19T08:22:29.926Z,28.24
2023-05-19T08:25:21.356Z,28.30
2023-05-19T08:28:11.976Z,28.16
2023-05-19T08:31:10.349Z,27.84
2023-05-19T08:34:04.519Z,27.31
2023-05-19T08:36:57.996Z,26.48
2023-05-19T08:39:49.069Z,25.64
2023-05-19T08:42:38.689Z,24.96
2023-05-19T08:45:39.316Z,24.37
2023-05-19T08:48:31.564Z,23.73
2023-05-19T08:52:21.368Z,23.10
2023-05-19T08:55:17.172Z,22.36
2023-05-19T08:58:08.680Z,21.95
2023-05-19T09:00:59.710Z,21.64
2023-05-19T09:03:50.196Z,21.35
2023-05-19T09:06:45.152Z,21.10
2023-05-19T09:09:33.334Z,20.94
2023-05-19T09:12:21.851Z,20.81
2023-05-19T09:15:11.107Z,20.68
2023-05-19T09:18:14.139Z,20.54
2023-05-19T09:21:03.431Z,20.46
2023-05-19T09:23:51.807Z,20.41
2023-05-19T09:26:43.164Z,20.41
2023-05-19T09:29:31.642Z,20.34
2023-05-19T09:32:29.921Z,20.25
2023-05-19T09:35:20.858Z,20.14
2023-05-19T09:38:12.011Z,20.06
2023-05-19T09:41:01.926Z,20.02
2023-05-19T09:43:56.587Z,20.00
2023-05-19T09:46:51.247Z,19.96
2023-05-19T09:49:47.785Z,19.82
2023-05-19T09:52:39.205Z,19.65
2023-05-19T09:55:29.400Z,19.43
2023-05-19T09:58:21.759Z,19.21
2023-05-19T10:01:10.334Z,19.02
2023-05-19T10:03:58.375Z,18.82
2023-05-19T10:06:46.619Z,18.62
2023-05-19T10:09:37.618Z,18.40
2023-05-19T10:12:27.691Z,18.19
2023-05-19T10:15:22.229Z,18.02
2023-05-19T10:18:16.055Z,17.87
2023-05-19T10:21:06.477Z,17.80
2023-05-19T10:23:59.201Z,17.72
2023-05-19T10:27:03.621Z,17.61
2023-05-19T10:29:52.424Z,17.56
2023-05-19T10:32:44.897Z,17.54
2023-05-19T10:36:02.845Z,17.53
2023-05-19T10:39:05.647Z,17.47
2023-05-19T10:42:31.070Z,17.40
2023-05-19T10:45:24.404Z,17.34
2023-05-19T10:48:19.622Z,17.22
2023-05-19T10:51:12.362Z,17.11
2023-05-19T10:54:11.442Z,17.04
2023-05-19T10:57:01.093Z,16.96
2023-05-19T10:59:50.239Z,16.91
2023-05-19T11:02:46.359Z,16.84
2023-05-19T11:05:37.114Z,16.77
2023-05-19T11:08:36.579Z,16.68
2023-05-19T11:11:25.135Z,16.54
2023-05-19T11:14:17.265Z,16.37
2023-05-19T11:17:14.536Z,16.19
2023-05-19T11:20:05.074Z,16.00
2023-05-19T11:23:08.874Z,15.82
2023-05-19T11:25:57.950Z,15.71
2023-05-19T11:28:48.345Z,15.61
2023-05-19T11:31:37.570Z,15.51
2023-05-19T11:34:27.368Z,15.42
2023-05-19T11:37:17.254Z,15.36
2023-05-19T11:40:07.784Z,15.30
2023-05-19T11:42:56.217Z,15.27
2023-05-19T11:45:46.021Z,15.25
2023-05-19T11:48:34.215Z,15.26
2023-05-19T11:51:23.426Z,15.28
2023-05-19T11:54:12.969Z,15.31
2023-05-19T11:57:03.120Z,15.38
2023-05-19T11:59:53.560Z,15.49
2023-05-19T12:02:42.252Z,15.63
2023-05-19T12:05:34.504Z,15.80
2023-05-19T12:08:25.622Z,15.95
2023-05-19T12:11:15.031Z,16.05
2023-05-19T12:14:03.648Z,16.09
2023-05-19T12:16:52.253Z,16.07
2023-05-19T12:19:50.398Z,16.03
2023-05-19T12:22:38.567Z,16.01
2023-05-19T12:25:28.171Z,16.03
2023-05-19T12:28:17.247Z,16.05
2023-05-19T12:31:06.919Z,16.07
2023-05-19T12:33:56.159Z,16.12
2023-05-19T12:36:46.728Z,16.17
2023-05-19T12:39:36.464Z,16.22
2023-05-19T12:42:31.422Z,16.25
2023-05-19T12:45:28.693Z,16.31
2023-05-19T12:48:17.436Z,16.34
2023-05-19T12:51:06.129Z,16.35
2023-05-19T12:53:54.891Z,16.40
2023-05-19T12:56:51.358Z,16.45
2023-05-19T12:59:42.868Z,16.54
2023-05-19T13:02:34.561Z,16.57
2023-05-19T13:05:23.474Z,16.55
2023-05-19T13:08:16.309Z,16.53
2023-05-19T13:11:05.133Z,16.56
2023-05-19T13:13:53.719Z,16.57
2023-05-19T13:16:42.882Z,16.52
2023-05-19T13:19:30.790Z,16.41
2023-05-19T13:22:19.516Z,16.30
2023-05-19T13:25:09.321Z,16.20
2023-05-19T13:27:59.556Z,16.13
2023-05-19T13:30:49.944Z,16.11
2023-05-19T13:33:37.913Z,16.10
2023-05-19T13:36:30.575Z,16.03
2023-05-19T13:39:19.712Z,16.02
2023-05-19T13:42:09.159Z,16.06
2023-05-19T13:44:58.161Z,16.02
2023-05-19T13:47:46.629Z,15.91
2023-05-19T13:50:34.759Z,15.81
2023-05-19T13:53:23.160Z,15.80
2023-05-19T13:56:14.536Z,15.83
2023-05-19T13:59:04.277Z,15.85
2023-05-19T14:01:52.653Z,15.89
2023-05-19T14:04:42.018Z,15.91
2023-05-19T14:07:30.875Z,15.90
2023-05-19T14:10:23.264Z,15.90
2023-05-19T14:13:31.477Z,15.87
2023-05-19T14:16:23.199Z,15.77
2023-05-19T14:19:11.942Z,15.65
2023-05-19T14:22:00.450Z,15.55
2023-05-19T14:24:48.760Z,15.42
2023-05-19T14:27:41.043Z,15.24
2023-05-19T14:30:29.405Z,15.10
2023-05-19T14:33:22.073Z,14.98
2023-05-19T14:36:10.783Z,14.85
2023-05-19T14:38:58.997Z,14.73
2023-05-19T14:41:49.497Z,14.62
2023-05-19T14:44:40.412Z,14.51
2023-05-19T14:47:58.479Z,14.38
2023-05-19T14:50:50.413Z,14.24
2023-05-19T14:53:39.479Z,14.13
2023-05-19T14:56:32.165Z,14.00
2023-05-19T14:59:22.968Z,13.83
2023-05-19T15:02:14.271Z,13.68
2023-05-19T15:05:04.014Z,13.58
2023-05-19T15:07:57.438Z,13.48
2023-05-19T15:10:50.097Z,13.36
2023-05-19T15:13:39.346Z,13.26
2023-05-19T15:16:28.355Z,13.19
2023-05-19T15:19:17.372Z,13.11
2023-05-19T15:22:07.364Z,13.02
2023-05-19T15:24:57.499Z,12.94
2023-05-19T15:27:49.340Z,12.86
2023-05-19T15:30:40.010Z,12.78
2023-05-19T15:33:32.574Z,12.70
2023-05-19T15:36:24.865Z,12.66
2023-05-19T15:39:13.930Z,12.63
2023-05-19T15:42:03.548Z,12.61
2023-05-19T15:44:52.539Z,12.60
2023-05-19T15:47:40.642Z,12.60
2023-05-19T15:50:30.137Z,12.61
2023-05-19T15:53:20.459Z,12.62
2023-05-19T15:56:08.725Z,12.66
2023-05-19T15:58:57.988Z,12.69
2023-05-19T16:01:46.860Z,12.71
2023-05-19T16:04:35.220Z,12.73
2023-05-19T16:07:23.964Z,12.74
2023-05-19T16:10:12.717Z,12.77
2023-05-19T16:13:00.965Z,12.81
2023-05-19T16:15:49.504Z,12.82
2023-05-19T16:18:37.884Z,12.83
2023-05-19T16:21:26.120Z,12.81
2023-05-19T16:24:14.517Z,12.81
2023-05-19T16:27:05.221Z,12.78
2023-05-19T16:29:53.625Z,13.06
2023-05-19T16:32:41.660Z,14.40
2023-05-19T16:35:29.948Z,15.33
2023-05-19T16:38:18.335Z,15.64
2023-05-19T16:41:12.282Z,15.04
2023-05-19T16:44:02.488Z,14.41
2023-05-19T16:46:51.047Z,13.97
2023-05-19T16:49:42.540Z,13.66
2023-05-19T16:52:30.649Z,13.41
2023-05-19T16:55:20.819Z,13.19
2023-05-19T16:58:11.824Z,13.00
2023-05-19T17:01:00.675Z,12.83
2023-05-19T17:03:49.006Z,12.67
2023-05-19T17:06:37.649Z,12.85
2023-05-19T17:09:26.472Z,14.16
2023-05-19T17:12:15.964Z,15.27
2023-05-19T17:15:04.751Z,15.99
2023-05-19T17:17:53.798Z,16.30
2023-05-19T17:20:42.023Z,15.62
2023-05-19T17:23:30.769Z,14.78
2023-05-19T17:26:19.235Z,14.17
2023-05-19T17:29:07.419Z,13.74
2023-05-19T17:31:55.909Z,13.39
2023-05-19T17:34:44.176Z,13.09
2023-05-19T17:37:33.431Z,13.31
2023-05-19T17:40:21.752Z,14.56
2023-05-19T17:43:11.045Z,15.46
2023-05-19T17:46:01.030Z,15.97
2023-05-19T17:48:49.438Z,15.53
2023-05-19T17:51:39.592Z,14.56
2023-05-19T17:54:30.034Z,13.84
2023-05-19T17:57:19.128Z,13.32
2023-05-19T18:00:09.165Z,13.29
2023-05-19T18:02:57.741Z,14.44
2023-05-19T18:05:46.819Z,15.42
2023-05-19T18:08:38.226Z,15.95
2023-05-19T18:11:27.498Z,16.00
2023-05-19T18:14:16.550Z,15.03
2023-05-19T18:17:05.618Z,14.17
2023-05-19T18:19:54.802Z,13.56
2023-05-19T18:22:43.603Z,13.10
2023-05-19T18:25:31.599Z,13.05
2023-05-19T18:28:20.473Z,14.15
2023-05-19T18:31:17.551Z,15.10
2023-05-19T18:34:06.535Z,15.69
2023-05-19T18:36:54.998Z,15.92
2023-05-19T18:39:42.969Z,15.12
2023-05-19T18:42:31.019Z,14.12
2023-05-19T18:45:19.543Z,13.42
2023-05-19T18:48:08.885Z,12.89
2023-05-19T18:50:58.054Z,12.86
2023-05-19T18:53:50.152Z,14.07
2023-05-19T18:56:38.735Z,15.65
2023-05-19T18:59:27.000Z,16.12
2023-05-19T19:02:15.249Z,16.34
2023-05-19T19:05:04.267Z,16.20
2023-05-19T19:07:53.941Z,15.07
2023-05-19T19:10:42.648Z,14.08
2023-05-19T19:13:30.919Z,13.36
2023-05-19T19:16:19.444Z,13.08
2023-05-19T19:19:08.780Z,14.02
2023-05-19T19:21:58.306Z,14.99
2023-05-19T19:24:48.224Z,16.51
2023-05-19T19:27:37.786Z,17.62
2023-05-19T19:30:27.617Z,17.49
2023-05-19T19:33:16.032Z,15.95
2023-05-19T19:36:05.063Z,14.65
2023-05-19T19:38:53.826Z,13.76
2023-05-19T19:41:42.724Z,13.08
2023-05-19T19:44:33.423Z,12.95
2023-05-19T19:47:22.478Z,14.12
2023-05-19T19:50:12.797Z,15.25
2023-05-19T19:53:02.084Z,16.25
2023-05-19T19:56:02.705Z,16.13
2023-05-19T19:58:52.273Z,14.84
2023-05-19T20:01:40.631Z,13.80
2023-05-19T20:04:29.762Z,13.06
2023-05-19T20:07:21.092Z,12.86
2023-05-19T20:10:11.742Z,14.04
2023-05-19T20:13:01.374Z,15.01
2023-05-19T20:15:50.793Z,15.63
2023-05-19T20:18:40.904Z,16.10
2023-05-19T20:21:30.527Z,16.42
2023-05-19T20:24:18.958Z,16.36
2023-05-19T20:27:11.162Z,15.17
2023-05-19T20:29:59.982Z,14.08
2023-05-19T20:32:50.267Z,13.34
2023-05-19T20:35:41.061Z,13.12
2023-05-19T20:38:31.535Z,14.18
2023-05-19T20:41:21.324Z,15.01
2023-05-19T20:44:12.881Z,15.55
2023-05-19T20:47:01.401Z,15.90
2023-05-19T20:49:50.250Z,16.13
2023-05-19T20:52:40.202Z,15.96
2023-05-19T20:55:29.093Z,14.85
2023-05-19T20:58:17.219Z,13.91
2023-05-19T21:01:06.032Z,13.22
2023-05-19T21:03:54.607Z,12.99
2023-05-19T21:06:42.910Z,13.96
2023-05-19T21:09:31.001Z,14.80
2023-05-19T21:12:25.523Z,15.28
2023-05-19T21:15:15.823Z,15.61
2023-05-19T21:18:07.271Z,15.47
2023-05-19T21:20:56.854Z,14.45
2023-05-19T21:23:45.582Z,13.57
2023-05-19T21:26:33.774Z,12.94
2023-05-19T21:29:31.181Z,12.77
2023-05-19T21:32:29.745Z,13.86
2023-05-19T21:35:17.970Z,14.69
2023-05-19T21:38:15.688Z,15.21
2023-05-19T21:41:12.547Z,15.17
2023-05-19T21:44:01.520Z,14.12
2023-05-19T21:46:52.250Z,13.29
2023-05-19T21:49:41.085Z,12.72
2023-05-19T21:52:29.470Z,12.30
2023-05-19T21:55:18.581Z,12.30
2023-05-19T21:58:06.852Z,13.44
2023-05-19T22:00:55.024Z,14.36
2023-05-19T22:03:43.390Z,15.00
2023-05-19T22:06:31.759Z,15.19
2023-05-19T22:09:20.068Z,14.21
2023-05-19T22:12:09.062Z,13.33
2023-05-19T22:14:57.282Z,12.73
2023-05-19T22:17:45.538Z,12.26
2023-05-19T22:20:34.222Z,11.88
2023-05-19T22:23:23.020Z,11.83
2023-05-19T22:26:11.697Z,12.94
2023-05-19T22:29:01.184Z,14.00
2023-05-19T22:31:50.445Z,14.38
2023-05-19T22:34:39.332Z,13.53
2023-05-19T22:37:29.106Z,12.74
2023-05-19T22:40:18.017Z,12.16
2023-05-19T22:43:06.300Z,11.77
2023-05-19T22:45:56.380Z,11.82
2023-05-19T22:48:45.425Z,12.98
2023-05-19T22:51:33.810Z,13.94
2023-05-19T22:54:21.901Z,14.28
2023-05-19T22:57:11.585Z,13.46
2023-05-19T22:59:59.620Z,12.69
2023-05-19T23:02:47.829Z,12.13
2023-05-19T23:05:36.165Z,11.74
2023-05-19T23:08:24.424Z,11.45
2023-05-19T23:11:13.262Z,11.20
2023-05-19T23:14:02.059Z,11.32
2023-05-19T23:16:50.485Z,12.55
2023-05-19T23:19:39.166Z,13.60
2023-05-19T23:22:27.578Z,13.98
2023-05-19T23:25:15.668Z,13.18
2023-05-19T23:28:04.112Z,12.45
2023-05-19T23:30:54.432Z,11.92
2023-05-19T23:33:42.897Z,11.52
2023-05-19T23:36:31.793Z,11.23
2023-05-19T23:39:20.153Z,11.38
2023-05-19T23:42:08.322Z,12.95
2023-05-19T23:44:56.594Z,13.96
2023-05-19T23:47:44.815Z,14.20
2023-05-19T23:50:32.982Z,13.37
2023-05-19T23:53:21.408Z,12.61
2023-05-19T23:56:10.691Z,12.05
2023-05-19T23:58:58.854Z,11.64
